createdAt,value
2022-09-03T00:00:16.458Z,1.30
2022-09-03T00:05:43.660Z,1.77
2022-09-03T00:08:28.257Z,1.60
2022-09-03T00:10:58.692Z,1.30
2022-09-03T00:13:44.288Z,1.70
2022-09-03T00:16:16.072Z,1.80
2022-09-03T00:18:51.175Z,1.88
2022-09-03T00:21:24.652Z,2.10
2022-09-03T00:23:52.337Z,2.15
2022-09-03T00:26:31.860Z,1.55
2022-09-03T00:29:06.741Z,1.63
2022-09-03T00:31:38.441Z,1.60
2022-09-03T00:34:27.078Z,1.80
2022-09-03T00:36:53.815Z,1.80
2022-09-03T00:39:23.234Z,1.55
2022-09-03T00:42:23.678Z,1.73
2022-09-03T00:45:09.031Z,2.08
2022-09-03T00:47:48.863Z,2.08
2022-09-03T00:50:40.113Z,1.85
2022-09-03T00:53:28.329Z,2.03
2022-09-03T00:56:03.822Z,2.25
2022-09-03T00:58:49.266Z,1.92
2022-09-03T01:01:33.849Z,1.50
2022-09-03T01:04:27.682Z,2.20
2022-09-03T01:07:14.277Z,2.03
2022-09-03T01:10:11.774Z,1.40
2022-09-03T01:12:53.483Z,1.60
2022-09-03T01:15:42.552Z,1.40
2022-09-03T01:18:25.812Z,1.67
2022-09-03T01:21:21.864Z,1.50
2022-09-03T01:23:55.670Z,1.40
2022-09-03T01:26:49.398Z,1.58
2022-09-03T01:29:18.999Z,1.50
2022-09-03T01:31:51.640Z,1.60
2022-09-03T01:34:24.342Z,1.63
2022-09-03T01:36:59.862Z,3.03
2022-09-03T01:39:45.298Z,1.70
2022-09-03T01:42:23.735Z,1.40
2022-09-03T01:45:30.499Z,1.58
2022-09-03T01:48:31.127Z,1.60
2022-09-03T01:51:28.417Z,1.40
2022-09-03T01:54:10.948Z,2.13
2022-09-03T01:57:35.657Z,2.40
2022-09-03T02:00:03.698Z,2.13
2022-09-03T02:02:30.901Z,1.95
2022-09-03T02:05:02.496Z,2.20
2022-09-03T02:07:36.154Z,2.00
2022-09-03T02:10:06.541Z,1.80
2022-09-03T02:12:35.840Z,1.90
2022-09-03T02:15:12.180Z,2.38
2022-09-03T02:17:41.404Z,1.70
2022-09-03T02:20:12.142Z,2.80
2022-09-03T02:22:40.160Z,1.75
2022-09-03T02:25:07.603Z,1.65
2022-09-03T02:27:35.047Z,1.80
2022-09-03T02:30:01.680Z,1.92
2022-09-03T02:32:28.584Z,2.05
2022-09-03T02:34:55.208Z,1.55
2022-09-03T02:37:22.698Z,1.90
2022-09-03T02:39:50.525Z,1.73
2022-09-03T02:42:18.807Z,1.80
2022-09-03T02:44:50.960Z,1.52
2022-09-03T02:47:20.633Z,1.83
2022-09-03T02:49:50.235Z,2.00
2022-09-03T02:52:16.963Z,2.00
2022-09-03T02:54:45.229Z,2.33
2022-09-03T02:57:16.119Z,2.40
2022-09-03T02:59:45.553Z,1.80
2022-09-03T03:02:13.816Z,1.98
2022-09-03T03:04:40.641Z,2.33
2022-09-03T03:07:07.805Z,1.83
2022-09-03T03:09:34.391Z,1.90
2022-09-03T03:12:01.856Z,1.95
2022-09-03T03:14:28.392Z,2.20
2022-09-03T03:16:55.191Z,2.15
2022-09-03T03:19:21.760Z,1.90
2022-09-03T03:21:48.277Z,2.10
2022-09-03T03:24:14.983Z,1.83
2022-09-03T03:26:41.626Z,2.85
2022-09-03T03:29:08.227Z,1.67
2022-09-03T03:31:34.827Z,2.35
2022-09-03T03:34:03.344Z,1.90
2022-09-03T03:36:32.438Z,2.08
2022-09-03T03:39:00.442Z,2.22
2022-09-03T03:41:31.567Z,2.10
2022-09-03T03:44:00.615Z,2.75
2022-09-03T03:46:39.614Z,2.50
2022-09-03T03:49:07.500Z,2.28
2022-09-03T03:51:35.378Z,2.70
2022-09-03T03:54:05.065Z,2.40
2022-09-03T03:56:31.965Z,2.50
2022-09-03T03:58:59.373Z,2.42
2022-09-03T04:01:27.818Z,2.05
2022-09-03T04:04:00.010Z,2.38
2022-09-03T04:06:27.302Z,2.50
2022-09-03T04:08:54.006Z,2.70
2022-09-03T04:11:22.898Z,2.38
2022-09-03T04:13:50.901Z,2.03
2022-09-03T04:16:23.223Z,2.00
2022-09-03T04:18:50.980Z,2.40
2022-09-03T04:21:20.286Z,2.08
2022-09-03T04:23:48.481Z,2.13
2022-09-03T04:26:18.712Z,1.95
2022-09-03T04:28:45.596Z,1.85
2022-09-03T04:31:14.380Z,1.73
2022-09-03T04:33:41.542Z,2.28
2022-09-03T04:36:16.746Z,1.58
2022-09-03T04:38:45.038Z,2.03
2022-09-03T04:41:14.152Z,1.92
2022-09-03T04:43:43.364Z,1.65
2022-09-03T04:46:16.448Z,1.70
2022-09-03T04:48:48.896Z,2.00
2022-09-03T04:51:17.471Z,1.67
2022-09-03T04:53:46.595Z,1.55
2022-09-03T04:56:13.190Z,1.55
2022-09-03T04:58:40.260Z,2.03
2022-09-03T05:01:11.568Z,1.88
2022-09-03T05:03:38.644Z,2.70
2022-09-03T05:06:06.023Z,1.50
2022-09-03T05:08:37.241Z,1.63
2022-09-03T05:11:05.560Z,2.08
2022-09-03T05:13:33.853Z,1.77
2022-09-03T05:16:06.493Z,1.88
2022-09-03T05:18:35.815Z,1.40
2022-09-03T05:21:05.341Z,1.75
2022-09-03T05:23:37.626Z,2.17
2022-09-03T05:26:10.851Z,1.60
2022-09-03T05:28:39.573Z,1.73
2022-09-03T05:31:09.151Z,1.90
2022-09-03T05:33:44.591Z,1.95
2022-09-03T05:36:14.047Z,1.80
2022-09-03T05:38:40.853Z,1.80
2022-09-03T05:41:10.414Z,1.95
2022-09-03T05:43:37.501Z,1.65
2022-09-03T05:46:07.237Z,2.13
2022-09-03T05:48:35.813Z,1.80
2022-09-03T05:51:16.676Z,1.83
2022-09-03T05:53:48.333Z,2.50
2022-09-03T05:56:20.335Z,1.83
2022-09-03T05:58:50.008Z,1.90
2022-09-03T06:01:21.011Z,2.10
2022-09-03T06:03:54.305Z,1.70
2022-09-03T06:06:27.452Z,1.95
2022-09-03T06:09:06.122Z,1.75
2022-09-03T06:11:35.397Z,1.60
2022-09-03T06:14:08.092Z,2.03
2022-09-03T06:16:37.348Z,1.73
2022-09-03T06:19:07.313Z,1.70
2022-09-03T06:21:33.974Z,2.03
2022-09-03T06:24:00.514Z,1.92
2022-09-03T06:26:30.875Z,1.98
2022-09-03T06:28:58.101Z,1.88
2022-09-03T06:31:25.239Z,1.63
2022-09-03T06:33:53.726Z,1.67
2022-09-03T06:36:21.190Z,2.20
2022-09-03T06:38:47.928Z,2.42
2022-09-03T06:41:25.219Z,1.90
2022-09-03T06:43:54.442Z,1.90
2022-09-03T06:46:24.079Z,2.00
2022-09-03T06:48:51.326Z,2.05
2022-09-03T06:51:23.868Z,2.20
2022-09-03T06:54:06.323Z,2.17
2022-09-03T06:56:38.876Z,2.10
2022-09-03T06:59:14.852Z,2.45
2022-09-03T07:01:45.172Z,2.05
2022-09-03T07:04:14.689Z,1.83
2022-09-03T07:06:42.784Z,1.92
2022-09-03T07:09:10.970Z,1.77
2022-09-03T07:11:39.178Z,1.70
2022-09-03T07:14:05.709Z,1.85
2022-09-03T07:16:37.213Z,2.38
2022-09-03T07:19:06.014Z,1.65
2022-09-03T07:21:34.157Z,2.33
2022-09-03T07:24:00.884Z,1.48
2022-09-03T07:26:30.568Z,2.33
2022-09-03T07:28:58.249Z,1.88
2022-09-03T07:31:34.007Z,1.92
2022-09-03T07:34:06.207Z,2.08
2022-09-03T07:36:40.987Z,1.67
2022-09-03T07:39:08.486Z,1.88
2022-09-03T07:41:35.360Z,2.08
2022-09-03T07:44:05.699Z,1.83
2022-09-03T07:46:35.212Z,2.47
2022-09-03T07:49:02.554Z,2.13
2022-09-03T07:51:31.912Z,2.00
2022-09-03T07:54:00.620Z,2.35
2022-09-03T07:56:27.888Z,1.75
2022-09-03T07:58:56.406Z,1.83
2022-09-03T08:01:24.816Z,1.58
2022-09-03T08:03:56.311Z,1.67
2022-09-03T08:06:25.437Z,1.50
2022-09-03T08:09:05.055Z,1.48
2022-09-03T08:11:35.247Z,1.63
2022-09-03T08:14:06.456Z,1.58
2022-09-03T08:16:39.514Z,2.28
2022-09-03T08:19:07.577Z,1.55
2022-09-03T08:21:34.802Z,1.58
2022-09-03T08:24:04.252Z,1.60
2022-09-03T08:26:32.971Z,1.48
2022-09-03T08:28:59.950Z,2.05
2022-09-03T08:31:28.324Z,1.73
2022-09-03T08:33:57.612Z,2.00
2022-09-03T08:36:32.185Z,1.42
2022-09-03T08:39:05.069Z,1.67
2022-09-03T08:41:44.413Z,2.03
2022-09-03T08:44:24.095Z,1.92
2022-09-03T08:47:02.845Z,2.38
2022-09-03T08:49:45.825Z,2.15
2022-09-03T08:52:50.059Z,2.15
2022-09-03T08:55:25.675Z,1.75
2022-09-03T08:58:03.299Z,1.23
2022-09-03T09:01:03.419Z,1.20
2022-09-03T09:03:45.287Z,1.50
2022-09-03T09:06:39.906Z,1.13
2022-09-03T09:09:22.211Z,1.67
2022-09-03T09:12:19.522Z,1.50
2022-09-03T09:15:04.264Z,1.67
2022-09-03T09:17:37.127Z,1.20
2022-09-03T09:20:44.880Z,2.03
2022-09-03T09:23:15.612Z,1.30
2022-09-03T09:25:50.178Z,1.35
2022-09-03T09:28:22.469Z,1.42
2022-09-03T09:30:55.619Z,1.73
2022-09-03T09:35:49.957Z,1.30
2022-09-03T09:38:28.063Z,1.38
2022-09-03T09:40:57.184Z,1.25
2022-09-03T09:43:24.565Z,1.40
2022-09-03T09:45:53.594Z,1.33
2022-09-03T09:48:31.389Z,1.23
2022-09-03T09:51:05.515Z,1.73
2022-09-03T09:53:32.106Z,1.30
2022-09-03T09:55:59.054Z,1.33
2022-09-03T09:58:28.396Z,1.20
2022-09-03T10:00:56.477Z,1.40
2022-09-03T10:03:23.203Z,1.10
2022-09-03T10:06:23.492Z,1.45
2022-09-03T10:08:50.090Z,1.75
2022-09-03T10:11:18.717Z,1.45
2022-09-03T10:13:48.601Z,1.35
2022-09-03T10:16:29.496Z,1.20
2022-09-03T10:19:07.142Z,1.30
2022-09-03T10:21:45.197Z,1.30
2022-09-03T10:24:15.650Z,2.22
2022-09-03T10:26:45.921Z,1.50
2022-09-03T10:29:17.153Z,1.50
2022-09-03T10:32:24.070Z,1.67
2022-09-03T10:35:26.326Z,1.25
2022-09-03T10:38:05.677Z,1.15
2022-09-03T10:40:44.988Z,1.27
2022-09-03T10:43:39.919Z,1.40
2022-09-03T10:46:23.391Z,1.10
2022-09-03T10:48:57.924Z,1.70
2022-09-03T10:51:28.067Z,1.33
2022-09-03T10:54:00.755Z,1.58
2022-09-03T10:56:31.193Z,1.52
2022-09-03T10:59:25.085Z,1.33
2022-09-03T11:02:15.317Z,1.33
2022-09-03T11:04:51.968Z,1.40
2022-09-03T11:07:23.392Z,1.40
2022-09-03T11:10:04.058Z,1.52
2022-09-03T11:12:42.388Z,1.77
2022-09-03T11:15:20.538Z,1.63
2022-09-03T11:17:52.662Z,1.48
2022-09-03T11:20:22.293Z,1.40
2022-09-03T11:22:55.543Z,1.60
2022-09-03T11:25:26.108Z,1.50
2022-09-03T11:28:03.312Z,1.48
2022-09-03T11:30:49.806Z,1.85
2022-09-03T11:33:22.142Z,1.98
2022-09-03T11:35:57.253Z,1.50
2022-09-03T11:38:27.464Z,1.67
2022-09-03T11:41:15.764Z,1.45
2022-09-03T11:43:44.126Z,1.60
2022-09-03T11:46:28.603Z,1.70
2022-09-03T11:48:56.302Z,1.52
2022-09-03T11:51:32.206Z,1.50
2022-09-03T11:54:12.278Z,1.38
2022-09-03T11:56:40.216Z,1.55
2022-09-03T11:59:19.275Z,1.70
2022-09-03T12:02:05.689Z,1.60
2022-09-03T12:04:42.810Z,2.17
2022-09-03T12:07:46.018Z,1.33
2022-09-03T12:10:42.320Z,1.33
2022-09-03T12:13:27.889Z,1.50
2022-09-03T12:16:23.451Z,1.48
2022-09-03T12:18:53.133Z,1.60
2022-09-03T12:21:20.620Z,1.48
2022-09-03T12:23:49.361Z,1.30
2022-09-03T12:26:24.629Z,1.27
2022-09-03T12:28:54.728Z,1.65
2022-09-03T12:31:32.983Z,1.33
2022-09-03T12:34:01.326Z,1.20
2022-09-03T12:36:42.205Z,1.20
2022-09-03T12:42:23.889Z,1.10
2022-09-03T12:44:50.446Z,1.60
2022-09-03T12:50:16.988Z,1.30
2022-09-03T12:52:53.276Z,1.30
2022-09-03T12:55:40.415Z,1.40
2022-09-03T12:58:10.233Z,1.25
2022-09-03T13:00:49.314Z,1.50
2022-09-03T13:03:23.035Z,1.40
2022-09-03T13:05:54.295Z,1.40
2022-09-03T13:08:25.557Z,1.42
2022-09-03T13:10:58.317Z,1.40
2022-09-03T13:13:40.783Z,1.45
2022-09-03T13:16:19.617Z,1.30
2022-09-03T13:19:04.374Z,1.80
2022-09-03T13:21:40.435Z,1.35
2022-09-03T13:24:14.935Z,1.45
2022-09-03T13:27:18.123Z,1.35
2022-09-03T13:30:13.998Z,1.42
2022-09-03T13:33:18.355Z,1.10
2022-09-03T13:35:51.850Z,1.40
2022-09-03T13:38:25.945Z,1.23
2022-09-03T13:40:59.916Z,1.30
2022-09-03T13:43:47.334Z,1.48
2022-09-03T13:46:32.027Z,1.50
2022-09-03T13:49:27.705Z,1.45
2022-09-03T13:52:02.095Z,1.27
2022-09-03T13:54:50.255Z,1.38
2022-09-03T13:57:20.142Z,1.35
2022-09-03T13:59:55.587Z,1.30
2022-09-03T14:02:33.362Z,1.08
2022-09-03T14:05:06.189Z,1.20
2022-09-03T14:07:52.514Z,1.23
2022-09-03T14:10:23.806Z,1.20
2022-09-03T14:13:26.733Z,1.23
2022-09-03T14:16:12.124Z,1.67
2022-09-03T14:18:57.492Z,1.30
2022-09-03T14:21:30.006Z,1.50
2022-09-03T14:24:20.695Z,1.50
2022-09-03T14:26:53.945Z,1.10
2022-09-03T14:29:28.209Z,1.23
2022-09-03T14:32:11.900Z,1.10
2022-09-03T14:35:10.826Z,1.48
2022-09-03T14:37:58.835Z,1.60
2022-09-03T14:40:41.033Z,2.00
2022-09-03T14:43:45.205Z,1.33
2022-09-03T14:46:23.933Z,1.38
2022-09-03T14:49:05.591Z,1.40
2022-09-03T14:51:55.196Z,1.30
2022-09-03T14:54:51.792Z,1.35
2022-09-03T14:57:43.121Z,1.40
2022-09-03T15:00:20.110Z,1.30
2022-09-03T15:03:05.716Z,1.52
2022-09-03T15:06:04.617Z,1.55
2022-09-03T15:08:42.568Z,1.40
2022-09-03T15:11:19.177Z,1.40
2022-09-03T15:13:51.681Z,1.55
2022-09-03T15:16:21.515Z,1.77
2022-09-03T15:19:06.427Z,1.40
2022-09-03T15:22:01.459Z,1.40
2022-09-03T15:24:43.070Z,1.80
2022-09-03T15:27:12.416Z,1.50
2022-09-03T15:29:51.458Z,2.25
2022-09-03T15:32:27.816Z,1.40
2022-09-03T15:34:54.303Z,1.40
2022-09-03T15:37:27.903Z,1.48
2022-09-03T15:40:20.919Z,1.27
2022-09-03T15:42:53.337Z,1.80
2022-09-03T15:45:34.836Z,1.65
2022-09-03T15:48:16.703Z,1.60
2022-09-03T15:50:55.164Z,1.30
2022-09-03T15:53:39.772Z,1.20
2022-09-03T15:56:41.220Z,1.50
2022-09-03T15:59:17.685Z,1.67
2022-09-03T16:01:54.077Z,1.48
2022-09-03T16:04:47.951Z,2.08
2022-09-03T16:07:39.668Z,1.30
2022-09-03T16:10:26.317Z,1.70
2022-09-03T16:13:27.610Z,1.77
2022-09-03T16:16:10.922Z,1.42
2022-09-03T16:18:45.612Z,2.00
2022-09-03T16:21:26.000Z,1.25
2022-09-03T16:24:09.680Z,1.10
2022-09-03T16:26:44.518Z,1.30
2022-09-03T16:29:26.028Z,1.42
2022-09-03T16:31:58.352Z,1.85
2022-09-03T16:34:51.762Z,1.98
2022-09-03T16:37:31.240Z,1.95
2022-09-03T16:40:05.885Z,1.95
2022-09-03T16:42:50.558Z,2.25
2022-09-03T16:45:49.761Z,1.90
2022-09-03T16:48:40.648Z,2.33
2022-09-03T16:51:23.747Z,1.92
2022-09-03T16:54:09.213Z,1.55
2022-09-03T16:56:54.331Z,1.77
2022-09-03T16:59:33.065Z,1.70
2022-09-03T17:02:23.661Z,1.70
2022-09-03T17:04:56.029Z,1.50
2022-09-03T17:07:40.596Z,1.60
2022-09-03T17:10:13.749Z,1.70
2022-09-03T17:13:09.279Z,1.92
2022-09-03T17:15:54.980Z,1.83
2022-09-03T17:18:54.975Z,1.83
2022-09-03T17:21:38.846Z,1.60
2022-09-03T17:24:17.938Z,1.70
2022-09-03T17:27:04.217Z,2.22
2022-09-03T17:30:00.380Z,1.52
2022-09-03T17:32:48.483Z,1.90
2022-09-03T17:35:37.323Z,2.05
2022-09-03T17:38:25.346Z,1.65
2022-09-03T17:41:15.472Z,1.67
2022-09-03T17:44:05.494Z,1.52
2022-09-03T17:46:46.210Z,2.20
2022-09-03T17:49:26.166Z,1.80
2022-09-03T17:52:03.725Z,2.08
2022-09-03T17:54:47.333Z,2.10
2022-09-03T17:57:26.785Z,2.28
2022-09-03T18:00:12.502Z,1.90
2022-09-03T18:02:45.048Z,1.98
2022-09-03T18:05:25.947Z,2.20
2022-09-03T18:08:06.641Z,2.47
2022-09-03T18:11:13.989Z,2.08
2022-09-03T18:14:18.128Z,2.33
2022-09-03T18:17:03.267Z,1.80
2022-09-03T18:20:12.638Z,1.70
2022-09-03T18:23:11.763Z,1.98
2022-09-03T18:26:02.109Z,1.90
2022-09-03T18:29:19.489Z,1.90
2022-09-03T18:32:04.492Z,1.77
2022-09-03T18:34:52.398Z,2.13
2022-09-03T18:37:40.610Z,1.80
2022-09-03T18:40:28.265Z,2.78
2022-09-03T18:43:51.818Z,2.00
2022-09-03T18:48:01.187Z,2.20
2022-09-03T18:50:18.689Z,2.90
2022-09-03T18:53:08.917Z,2.50
2022-09-03T18:56:08.082Z,2.15
2022-09-03T18:59:08.117Z,2.03
2022-09-03T19:01:57.161Z,2.58
2022-09-03T19:05:20.137Z,2.60
2022-09-03T19:08:36.763Z,2.03
2022-09-03T19:11:38.319Z,2.17
2022-09-03T19:14:33.309Z,2.10
2022-09-03T19:17:27.896Z,2.30
2022-09-03T19:20:32.060Z,2.30
2022-09-03T19:23:16.882Z,1.90
2022-09-03T19:26:02.734Z,2.30
2022-09-03T19:28:56.121Z,2.20
2022-09-03T19:31:50.332Z,2.40
2022-09-03T19:35:10.465Z,2.35
2022-09-03T19:38:54.097Z,2.10
2022-09-03T19:41:46.024Z,2.30
2022-09-03T19:44:44.165Z,2.75
2022-09-03T19:47:37.709Z,2.30
2022-09-03T19:50:39.907Z,2.30
2022-09-03T19:53:31.412Z,2.60
2022-09-03T19:56:23.946Z,2.85
2022-09-03T19:59:25.082Z,2.50
2022-09-03T20:02:10.689Z,2.50
2022-09-03T20:05:05.332Z,2.50
2022-09-03T20:07:52.848Z,2.50
2022-09-03T20:10:23.769Z,3.10
2022-09-03T20:13:15.051Z,2.58
2022-09-03T20:16:16.595Z,2.47
2022-09-03T20:18:48.015Z,1.92
2022-09-03T20:21:17.653Z,2.50
2022-09-03T20:23:47.313Z,2.65
2022-09-03T20:26:26.455Z,2.92
2022-09-03T20:29:06.085Z,3.38
2022-09-03T20:31:50.009Z,2.75
2022-09-03T20:34:36.313Z,3.67
2022-09-03T20:37:10.654Z,2.95
2022-09-03T20:39:45.092Z,2.85
2022-09-03T20:42:20.528Z,2.88
2022-09-03T20:45:11.992Z,3.00
2022-09-03T20:47:55.133Z,3.20
2022-09-03T20:50:41.140Z,2.83
2022-09-03T20:53:26.060Z,2.85
2022-09-03T20:56:12.739Z,2.67
2022-09-03T20:58:52.305Z,2.80
2022-09-03T21:01:54.342Z,2.83
2022-09-03T21:04:40.212Z,2.90
2022-09-03T21:07:29.342Z,2.92
2022-09-03T21:10:13.592Z,3.35
2022-09-03T21:12:58.416Z,3.30
2022-09-03T21:15:40.334Z,3.72
2022-09-03T21:18:13.403Z,3.92
2022-09-03T21:20:48.918Z,5.00
2022-09-03T21:23:28.590Z,5.90
2022-09-03T21:26:10.727Z,3.80
2022-09-03T21:29:00.415Z,3.40
2022-09-03T21:31:53.714Z,3.60
2022-09-03T21:34:33.270Z,3.33
2022-09-03T21:37:03.342Z,3.58
2022-09-03T21:39:51.125Z,3.30
2022-09-03T21:42:37.883Z,3.20
2022-09-03T21:45:14.237Z,3.60
2022-09-03T21:48:01.519Z,3.63
2022-09-03T21:50:53.332Z,3.80
2022-09-03T21:53:27.674Z,3.55
2022-09-03T21:56:32.963Z,3.10
2022-09-03T21:59:08.917Z,3.53
2022-09-03T22:02:17.005Z,3.17
2022-09-03T22:04:43.740Z,3.20
2022-09-03T22:07:53.321Z,3.60
2022-09-03T22:10:35.089Z,4.60
2022-09-03T22:13:31.008Z,5.47
2022-09-03T22:16:06.128Z,4.30
2022-09-03T22:18:36.527Z,4.53
2022-09-03T22:21:23.417Z,3.92
2022-09-03T22:24:14.772Z,4.15
2022-09-03T22:26:51.337Z,3.75
2022-09-03T22:29:24.410Z,3.80
2022-09-03T22:32:24.824Z,3.95
2022-09-03T22:35:00.823Z,3.97
2022-09-03T22:37:49.001Z,4.20
2022-09-03T22:40:25.898Z,4.88
2022-09-03T22:43:04.451Z,4.68
2022-09-03T22:46:06.501Z,4.85
2022-09-03T22:48:58.401Z,4.72
2022-09-03T22:51:29.045Z,4.63
2022-09-03T22:54:21.173Z,4.88
2022-09-03T22:56:48.605Z,4.60
2022-09-03T22:59:30.725Z,4.57
2022-09-03T23:02:09.355Z,5.57
2022-09-03T23:04:47.763Z,6.65
2022-09-03T23:07:35.030Z,5.25
2022-09-03T23:10:14.060Z,4.85
2022-09-03T23:13:02.989Z,4.47
2022-09-03T23:15:32.306Z,4.32
2022-09-03T23:18:23.579Z,5.65
2022-09-03T23:21:01.239Z,6.05
2022-09-03T23:23:56.835Z,5.43
2022-09-03T23:26:35.229Z,5.07
2022-09-03T23:29:29.114Z,5.20
2022-09-03T23:34:27.244Z,5.00
2022-09-03T23:37:33.185Z,5.53
2022-09-03T23:40:26.211Z,7.32
2022-09-03T23:43:31.080Z,6.20
2022-09-03T23:46:28.379Z,5.97
2022-09-03T23:49:09.072Z,5.72
2022-09-03T23:51:57.178Z,5.80
2022-09-03T23:54:53.165Z,6.22
2022-09-03T23:57:42.028Z,7.10
